sensor_id;sensor_type;location;lat;lon;timestamp;temperature;humidity
7498;DHT22;3790;48.806;9.140;2023-07-02T00:03:19;15.30;99.90
7498;DHT22;3790;48.806;9.140;2023-07-02T00:08:22;15.30;99.90
7498;DHT22;3790;48.806;9.140;2023-07-02T00:13:23;15.30;99.90
7498;DHT22;3790;48.806;9.140;2023-07-02T00:18:23;15.30;99.90
7498;DHT22;3790;48.806;9.140;2023-07-02T00:23:34;15.30;99.90
7498;DHT22;3790;48.806;9.140;2023-07-02T00:28:34;15.20;99.90
7498;DHT22;3790;48.806;9.140;2023-07-02T00:33:35;15.20;99.90
7498;DHT22;3790;48.806;9.140;2023-07-02T00:38:35;15.20;99.90
7498;DHT22;3790;48.806;9.140;2023-07-02T00:43:36;15.30;99.90
7498;DHT22;3790;48.806;9.140;2023-07-02T00:48:38;15.40;99.90
7498;DHT22;3790;48.806;9.140;2023-07-02T00:53:39;15.50;99.90
7498;DHT22;3790;48.806;9.140;2023-07-02T00:58:41;15.60;99.90
7498;DHT22;3790;48.806;9.140;2023-07-02T01:03:55;15.70;99.90
7498;DHT22;3790;48.806;9.140;2023-07-02T01:09:01;15.70;99.90
7498;DHT22;3790;48.806;9.140;2023-07-02T01:14:11;15.80;99.90
7498;DHT22;3790;48.806;9.140;2023-07-02T01:19:42;15.80;99.90
7498;DHT22;3790;48.806;9.140;2023-07-02T01:24:44;15.80;99.90
7498;DHT22;3790;48.806;9.140;2023-07-02T01:29:51;15.70;99.90
7498;DHT22;3790;48.806;9.140;2023-07-02T01:34:51;15.50;99.90
7498;DHT22;3790;48.806;9.140;2023-07-02T01:39:53;15.50;99.90
7498;DHT22;3790;48.806;9.140;2023-07-02T01:44:54;15.40;99.90
7498;DHT22;3790;48.806;9.140;2023-07-02T01:49:54;15.30;99.90
7498;DHT22;3790;48.806;9.140;2023-07-02T01:54:54;15.30;99.90
7498;DHT22;3790;48.806;9.140;2023-07-02T01:59:55;15.30;99.90
7498;DHT22;3790;48.806;9.140;2023-07-02T02:04:55;15.40;99.90
7498;DHT22;3790;48.806;9.140;2023-07-02T02:09:56;15.50;99.90
7498;DHT22;3790;48.806;9.140;2023-07-02T02:14:57;15.60;99.90
7498;DHT22;3790;48.806;9.140;2023-07-02T02:19:57;15.70;99.90
7498;DHT22;3790;48.806;9.140;2023-07-02T02:24:58;15.80;99.90
7498;DHT22;3790;48.806;9.140;2023-07-02T02:29:58;16.00;99.90
7498;DHT22;3790;48.806;9.140;2023-07-02T02:34:59;16.20;99.90
7498;DHT22;3790;48.806;9.140;2023-07-02T02:39:59;16.40;99.90
7498;DHT22;3790;48.806;9.140;2023-07-02T02:45:00;16.50;99.90
7498;DHT22;3790;48.806;9.140;2023-07-02T02:50:00;16.50;99.90
7498;DHT22;3790;48.806;9.140;2023-07-02T02:55:01;16.40;99.90
7498;DHT22;3790;48.806;9.140;2023-07-02T03:00:02;16.20;99.90
7498;DHT22;3790;48.806;9.140;2023-07-02T03:05:03;16.10;99.90
7498;DHT22;3790;48.806;9.140;2023-07-02T03:10:05;16.00;99.90
7498;DHT22;3790;48.806;9.140;2023-07-02T03:15:06;15.90;99.90
7498;DHT22;3790;48.806;9.140;2023-07-02T03:20:07;15.90;99.90
7498;DHT22;3790;48.806;9.140;2023-07-02T03:25:10;15.80;99.90
7498;DHT22;3790;48.806;9.140;2023-07-02T03:30:11;15.40;99.90
7498;DHT22;3790;48.806;9.140;2023-07-02T03:35:12;15.30;99.90
7498;DHT22;3790;48.806;9.140;2023-07-02T03:40:12;15.10;99.90
7498;DHT22;3790;48.806;9.140;2023-07-02T03:45:13;14.90;99.90
7498;DHT22;3790;48.806;9.140;2023-07-02T03:50:13;14.80;99.90
7498;DHT22;3790;48.806;9.140;2023-07-02T03:55:14;14.80;99.90
7498;DHT22;3790;48.806;9.140;2023-07-02T04:00:14;14.70;99.90
7498;DHT22;3790;48.806;9.140;2023-07-02T04:05:15;14.70;99.90
7498;DHT22;3790;48.806;9.140;2023-07-02T04:10:16;14.60;99.90
7498;DHT22;3790;48.806;9.140;2023-07-02T04:15:17;14.70;99.90
7498;DHT22;3790;48.806;9.140;2023-07-02T04:20:17;14.60;99.90
7498;DHT22;3790;48.806;9.140;2023-07-02T04:25:19;14.60;99.90
7498;DHT22;3790;48.806;9.140;2023-07-02T04:30:19;14.50;99.90
7498;DHT22;3790;48.806;9.140;2023-07-02T04:35:20;14.50;99.90
7498;DHT22;3790;48.806;9.140;2023-07-02T04:40:20;14.60;99.90
7498;DHT22;3790;48.806;9.140;2023-07-02T04:45:21;15.00;99.90
7498;DHT22;3790;48.806;9.140;2023-07-02T04:50:21;15.10;99.90
7498;DHT22;3790;48.806;9.140;2023-07-02T04:55:22;18.00;99.90
7498;DHT22;3790;48.806;9.140;2023-07-02T05:00:22;22.00;99.90
7498;DHT22;3790;48.806;9.140;2023-07-02T05:05:23;25.30;99.90
7498;DHT22;3790;48.806;9.140;2023-07-02T05:10:23;27.70;99.90
7498;DHT22;3790;48.806;9.140;2023-07-02T05:15:24;27.20;99.90
7498;DHT22;3790;48.806;9.140;2023-07-02T05:20:25;25.60;99.90
7498;DHT22;3790;48.806;9.140;2023-07-02T05:25:26;21.60;99.90
7498;DHT22;3790;48.806;9.140;2023-07-02T05:30:27;19.20;99.90
7498;DHT22;3790;48.806;9.140;2023-07-02T05:35:27;18.20;99.90
7498;DHT22;3790;48.806;9.140;2023-07-02T05:40:28;18.40;99.90
7498;DHT22;3790;48.806;9.140;2023-07-02T05:45:28;22.00;99.90
7498;DHT22;3790;48.806;9.140;2023-07-02T05:50:29;26.50;99.90
7498;DHT22;3790;48.806;9.140;2023-07-02T05:55:29;28.90;99.90
7498;DHT22;3790;48.806;9.140;2023-07-02T06:00:30;27.30;99.90
7498;DHT22;3790;48.806;9.140;2023-07-02T06:05:30;25.80;99.90
7498;DHT22;3790;48.806;9.140;2023-07-02T06:10:31;22.70;99.90
7498;DHT22;3790;48.806;9.140;2023-07-02T06:15:31;20.50;99.90
7498;DHT22;3790;48.806;9.140;2023-07-02T06:20:32;20.10;99.90
7498;DHT22;3790;48.806;9.140;2023-07-02T06:25:32;20.20;99.90
7498;DHT22;3790;48.806;9.140;2023-07-02T06:30:33;20.20;99.90
7498;DHT22;3790;48.806;9.140;2023-07-02T06:35:33;19.50;99.90
7498;DHT22;3790;48.806;9.140;2023-07-02T06:40:34;19.20;99.90
7498;DHT22;3790;48.806;9.140;2023-07-02T06:45:35;19.00;99.90
7498;DHT22;3790;48.806;9.140;2023-07-02T06:50:35;19.40;99.90
7498;DHT22;3790;48.806;9.140;2023-07-02T06:55:36;19.20;99.90
7498;DHT22;3790;48.806;9.140;2023-07-02T07:00:36;19.20;99.90
7498;DHT22;3790;48.806;9.140;2023-07-02T07:05:37;19.20;99.90
7498;DHT22;3790;48.806;9.140;2023-07-02T07:10:37;19.20;99.90
7498;DHT22;3790;48.806;9.140;2023-07-02T07:15:38;19.40;99.90
7498;DHT22;3790;48.806;9.140;2023-07-02T07:20:39;18.90;99.90
7498;DHT22;3790;48.806;9.140;2023-07-02T07:25:43;18.90;99.90
7498;DHT22;3790;48.806;9.140;2023-07-02T07:30:44;18.70;99.90
7498;DHT22;3790;48.806;9.140;2023-07-02T07:35:44;18.60;99.90
7498;DHT22;3790;48.806;9.140;2023-07-02T07:40:47;18.60;99.90
7498;DHT22;3790;48.806;9.140;2023-07-02T07:45:48;18.70;99.90
7498;DHT22;3790;48.806;9.140;2023-07-02T07:50:49;18.80;99.90
7498;DHT22;3790;48.806;9.140;2023-07-02T07:55:50;19.20;99.90
7498;DHT22;3790;48.806;9.140;2023-07-02T08:00:50;18.90;99.90
7498;DHT22;3790;48.806;9.140;2023-07-02T08:05:51;19.70;99.90
7498;DHT22;3790;48.806;9.140;2023-07-02T08:10:51;19.90;99.90
7498;DHT22;3790;48.806;9.140;2023-07-02T08:15:52;19.90;99.90
7498;DHT22;3790;48.806;9.140;2023-07-02T08:20:52;19.80;99.90
7498;DHT22;3790;48.806;9.140;2023-07-02T08:25:53;19.40;99.90
7498;DHT22;3790;48.806;9.140;2023-07-02T08:30:53;19.50;99.90
7498;DHT22;3790;48.806;9.140;2023-07-02T08:35:54;19.40;99.90
7498;DHT22;3790;48.806;9.140;2023-07-02T08:40:54;19.50;99.90
7498;DHT22;3790;48.806;9.140;2023-07-02T08:45:55;19.60;99.90
7498;DHT22;3790;48.806;9.140;2023-07-02T08:50:56;19.90;99.90
7498;DHT22;3790;48.806;9.140;2023-07-02T08:55:57;20.30;99.90
7498;DHT22;3790;48.806;9.140;2023-07-02T09:01:12;20.00;99.90
7498;DHT22;3790;48.806;9.140;2023-07-02T09:06:13;19.80;99.90
7498;DHT22;3790;48.806;9.140;2023-07-02T09:11:15;20.30;99.90
7498;DHT22;3790;48.806;9.140;2023-07-02T09:16:25;20.90;99.90
7498;DHT22;3790;48.806;9.140;2023-07-02T09:21:27;20.90;99.90
7498;DHT22;3790;48.806;9.140;2023-07-02T09:26:28;20.90;99.90
7498;DHT22;3790;48.806;9.140;2023-07-02T09:31:29;21.00;99.90
7498;DHT22;3790;48.806;9.140;2023-07-02T09:36:29;21.20;99.90
7498;DHT22;3790;48.806;9.140;2023-07-02T09:41:30;21.50;99.90
7498;DHT22;3790;48.806;9.140;2023-07-02T09:46:31;22.00;99.90
7498;DHT22;3790;48.806;9.140;2023-07-02T09:51:32;21.50;99.90
7498;DHT22;3790;48.806;9.140;2023-07-02T09:56:33;21.50;99.90
7498;DHT22;3790;48.806;9.140;2023-07-02T10:01:34;21.30;99.90
7498;DHT22;3790;48.806;9.140;2023-07-02T10:06:53;21.20;99.90
7498;DHT22;3790;48.806;9.140;2023-07-02T10:11:54;21.90;99.90
7498;DHT22;3790;48.806;9.140;2023-07-02T10:16:56;22.00;99.90
7498;DHT22;3790;48.806;9.140;2023-07-02T10:22:03;22.40;99.90
7498;DHT22;3790;48.806;9.140;2023-07-02T10:27:04;22.60;99.90
7498;DHT22;3790;48.806;9.140;2023-07-02T10:32:05;22.70;99.90
7498;DHT22;3790;48.806;9.140;2023-07-02T10:37:06;22.20;99.90
7498;DHT22;3790;48.806;9.140;2023-07-02T10:42:10;22.20;99.90
7498;DHT22;3790;48.806;9.140;2023-07-02T10:47:10;22.50;99.90
7498;DHT22;3790;48.806;9.140;2023-07-02T10:52:11;22.60;99.90
7498;DHT22;3790;48.806;9.140;2023-07-02T10:57:14;22.80;99.90
7498;DHT22;3790;48.806;9.140;2023-07-02T11:02:17;23.00;99.90
7498;DHT22;3790;48.806;9.140;2023-07-02T11:07:22;22.90;99.90
7498;DHT22;3790;48.806;9.140;2023-07-02T11:12:30;22.80;99.90
7498;DHT22;3790;48.806;9.140;2023-07-02T11:17:30;23.30;99.90
7498;DHT22;3790;48.806;9.140;2023-07-02T11:22:32;23.60;99.90
7498;DHT22;3790;48.806;9.140;2023-07-02T11:27:36;24.00;99.90
7498;DHT22;3790;48.806;9.140;2023-07-02T11:32:53;23.70;99.90
7498;DHT22;3790;48.806;9.140;2023-07-02T11:37:54;23.80;99.90
7498;DHT22;3790;48.806;9.140;2023-07-02T11:42:55;24.00;99.90
7498;DHT22;3790;48.806;9.140;2023-07-02T11:47:55;24.60;99.90
7498;DHT22;3790;48.806;9.140;2023-07-02T11:52:56;26.60;99.20
7498;DHT22;3790;48.806;9.140;2023-07-02T11:57:56;27.00;95.50
7498;DHT22;3790;48.806;9.140;2023-07-02T12:02:57;27.30;96.80
7498;DHT22;3790;48.806;9.140;2023-07-02T12:07:57;27.70;92.90
7498;DHT22;3790;48.806;9.140;2023-07-02T12:12:58;26.60;94.00
7498;DHT22;3790;48.806;9.140;2023-07-02T12:17:58;26.20;95.80
7498;DHT22;3790;48.806;9.140;2023-07-02T12:22:59;27.10;92.60
7498;DHT22;3790;48.806;9.140;2023-07-02T12:27:59;27.00;90.50
7498;DHT22;3790;48.806;9.140;2023-07-02T12:33:00;26.70;90.40
7498;DHT22;3790;48.806;9.140;2023-07-02T12:38:00;27.20;90.80
7498;DHT22;3790;48.806;9.140;2023-07-02T12:43:03;27.40;90.50
7498;DHT22;3790;48.806;9.140;2023-07-02T12:48:03;26.70;90.10
7498;DHT22;3790;48.806;9.140;2023-07-02T12:53:04;27.60;89.80
7498;DHT22;3790;48.806;9.140;2023-07-02T12:58:05;26.60;89.00
7498;DHT22;3790;48.806;9.140;2023-07-02T13:03:11;26.40;88.40
7498;DHT22;3790;48.806;9.140;2023-07-02T13:08:11;27.40;86.50
7498;DHT22;3790;48.806;9.140;2023-07-02T13:13:12;28.40;84.60
7498;DHT22;3790;48.806;9.140;2023-07-02T13:18:12;28.90;82.30
7498;DHT22;3790;48.806;9.140;2023-07-02T13:23:13;29.00;81.30
7498;DHT22;3790;48.806;9.140;2023-07-02T13:28:14;27.80;81.50
7498;DHT22;3790;48.806;9.140;2023-07-02T13:33:14;28.30;79.10
7498;DHT22;3790;48.806;9.140;2023-07-02T13:38:15;27.40;79.70
7498;DHT22;3790;48.806;9.140;2023-07-02T13:43:15;27.20;80.60
7498;DHT22;3790;48.806;9.140;2023-07-02T13:48:16;26.90;80.90
7498;DHT22;3790;48.806;9.140;2023-07-02T13:53:16;27.40;81.30
7498;DHT22;3790;48.806;9.140;2023-07-02T13:58:17;26.70;83.90
7498;DHT22;3790;48.806;9.140;2023-07-02T14:03:17;26.90;84.20
7498;DHT22;3790;48.806;9.140;2023-07-02T14:08:18;27.10;84.30
7498;DHT22;3790;48.806;9.140;2023-07-02T14:13:18;26.70;81.20
7498;DHT22;3790;48.806;9.140;2023-07-02T14:18:19;26.60;82.30
7498;DHT22;3790;48.806;9.140;2023-07-02T14:23:19;26.40;84.00
7498;DHT22;3790;48.806;9.140;2023-07-02T14:28:20;26.50;82.50
7498;DHT22;3790;48.806;9.140;2023-07-02T14:33:20;26.40;82.40
7498;DHT22;3790;48.806;9.140;2023-07-02T14:38:21;26.40;82.20
7498;DHT22;3790;48.806;9.140;2023-07-02T14:43:23;26.40;82.30
7498;DHT22;3790;48.806;9.140;2023-07-02T14:48:25;26.30;82.90
7498;DHT22;3790;48.806;9.140;2023-07-02T14:53:27;26.30;81.80
7498;DHT22;3790;48.806;9.140;2023-07-02T14:58:29;26.50;83.80
7498;DHT22;3790;48.806;9.140;2023-07-02T15:03:30;26.60;81.60
7498;DHT22;3790;48.806;9.140;2023-07-02T15:08:31;26.60;82.30
7498;DHT22;3790;48.806;9.140;2023-07-02T15:13:32;26.30;82.60
7498;DHT22;3790;48.806;9.140;2023-07-02T15:18:32;26.30;82.60
7498;DHT22;3790;48.806;9.140;2023-07-02T15:23:33;26.20;84.60
7498;DHT22;3790;48.806;9.140;2023-07-02T15:28:34;26.60;84.10
7498;DHT22;3790;48.806;9.140;2023-07-02T15:33:37;26.90;83.00
7498;DHT22;3790;48.806;9.140;2023-07-02T15:38:38;26.50;83.80
7498;DHT22;3790;48.806;9.140;2023-07-02T15:43:40;26.10;83.30
7498;DHT22;3790;48.806;9.140;2023-07-02T15:48:41;26.10;83.70
7498;DHT22;3790;48.806;9.140;2023-07-02T15:53:41;27.00;82.10
7498;DHT22;3790;48.806;9.140;2023-07-02T15:58:42;26.60;81.30
7498;DHT22;3790;48.806;9.140;2023-07-02T16:03:43;26.50;82.20
7498;DHT22;3790;48.806;9.140;2023-07-02T16:08:44;26.60;82.30
7498;DHT22;3790;48.806;9.140;2023-07-02T16:13:45;26.70;81.10
7498;DHT22;3790;48.806;9.140;2023-07-02T16:18:46;26.40;81.60
7498;DHT22;3790;48.806;9.140;2023-07-02T16:23:46;26.40;82.10
7498;DHT22;3790;48.806;9.140;2023-07-02T16:28:47;25.50;83.20
7498;DHT22;3790;48.806;9.140;2023-07-02T16:33:48;25.70;84.90
7498;DHT22;3790;48.806;9.140;2023-07-02T16:38:50;26.00;84.00
7498;DHT22;3790;48.806;9.140;2023-07-02T16:43:51;26.00;81.70
7498;DHT22;3790;48.806;9.140;2023-07-02T16:48:51;26.20;83.20
7498;DHT22;3790;48.806;9.140;2023-07-02T16:53:52;27.00;82.70
7498;DHT22;3790;48.806;9.140;2023-07-02T16:58:52;26.80;80.70
7498;DHT22;3790;48.806;9.140;2023-07-02T17:03:53;26.20;80.90
7498;DHT22;3790;48.806;9.140;2023-07-02T17:09:16;26.10;80.80
7498;DHT22;3790;48.806;9.140;2023-07-02T17:14:22;26.00;82.40
7498;DHT22;3790;48.806;9.140;2023-07-02T17:19:29;25.80;81.60
7498;DHT22;3790;48.806;9.140;2023-07-02T17:24:37;25.80;82.70
7498;DHT22;3790;48.806;9.140;2023-07-02T17:29:38;25.90;83.60
7498;DHT22;3790;48.806;9.140;2023-07-02T17:34:39;26.20;82.30
7498;DHT22;3790;48.806;9.140;2023-07-02T17:39:39;25.90;83.50
7498;DHT22;3790;48.806;9.140;2023-07-02T17:44:42;26.20;82.80
7498;DHT22;3790;48.806;9.140;2023-07-02T17:49:45;26.20;83.60
7498;DHT22;3790;48.806;9.140;2023-07-02T17:54:48;26.10;82.60
7498;DHT22;3790;48.806;9.140;2023-07-02T17:59:50;25.50;83.80
7498;DHT22;3790;48.806;9.140;2023-07-02T18:04:51;25.30;84.50
7498;DHT22;3790;48.806;9.140;2023-07-02T18:09:52;24.80;84.90
7498;DHT22;3790;48.806;9.140;2023-07-02T18:14:53;24.30;86.10
7498;DHT22;3790;48.806;9.140;2023-07-02T18:19:55;23.90;87.80
7498;DHT22;3790;48.806;9.140;2023-07-02T18:24:57;23.60;88.50
7498;DHT22;3790;48.806;9.140;2023-07-02T18:29:58;23.60;89.50
7498;DHT22;3790;48.806;9.140;2023-07-02T18:34:58;23.60;89.50
7498;DHT22;3790;48.806;9.140;2023-07-02T18:40:00;23.40;90.20
7498;DHT22;3790;48.806;9.140;2023-07-02T18:45:00;23.10;90.60
7498;DHT22;3790;48.806;9.140;2023-07-02T18:50:01;22.80;90.60
7498;DHT22;3790;48.806;9.140;2023-07-02T18:55:02;22.30;91.10
7498;DHT22;3790;48.806;9.140;2023-07-02T19:00:06;22.00;91.70
7498;DHT22;3790;48.806;9.140;2023-07-02T19:05:08;21.80;92.30
7498;DHT22;3790;48.806;9.140;2023-07-02T19:10:09;21.60;92.90
7498;DHT22;3790;48.806;9.140;2023-07-02T19:15:11;21.30;93.10
7498;DHT22;3790;48.806;9.140;2023-07-02T19:20:11;21.10;93.50
7498;DHT22;3790;48.806;9.140;2023-07-02T19:25:16;20.90;94.00
7498;DHT22;3790;48.806;9.140;2023-07-02T19:30:16;20.70;94.40
7498;DHT22;3790;48.806;9.140;2023-07-02T19:35:17;20.50;95.00
7498;DHT22;3790;48.806;9.140;2023-07-02T19:40:18;20.30;95.90
7498;DHT22;3790;48.806;9.140;2023-07-02T19:45:18;20.10;96.90
7498;DHT22;3790;48.806;9.140;2023-07-02T19:50:19;20.00;97.30
7498;DHT22;3790;48.806;9.140;2023-07-02T19:55:19;19.90;97.90
7498;DHT22;3790;48.806;9.140;2023-07-02T20:00:20;19.70;98.70
7498;DHT22;3790;48.806;9.140;2023-07-02T20:05:21;19.60;99.40
7498;DHT22;3790;48.806;9.140;2023-07-02T20:10:21;19.40;99.90
7498;DHT22;3790;48.806;9.140;2023-07-02T20:15:22;19.30;99.90
7498;DHT22;3790;48.806;9.140;2023-07-02T20:20:23;19.10;99.90
7498;DHT22;3790;48.806;9.140;2023-07-02T20:25:25;19.10;99.90
7498;DHT22;3790;48.806;9.140;2023-07-02T20:30:25;19.10;99.90
7498;DHT22;3790;48.806;9.140;2023-07-02T20:35:26;19.00;99.90
7498;DHT22;3790;48.806;9.140;2023-07-02T20:40:26;19.00;99.90
7498;DHT22;3790;48.806;9.140;2023-07-02T20:45:27;18.80;99.90
7498;DHT22;3790;48.806;9.140;2023-07-02T20:50:30;18.70;99.90
7498;DHT22;3790;48.806;9.140;2023-07-02T20:55:31;18.60;99.90
7498;DHT22;3790;48.806;9.140;2023-07-02T21:00:31;18.50;99.90
7498;DHT22;3790;48.806;9.140;2023-07-02T21:05:32;18.50;99.90
7498;DHT22;3790;48.806;9.140;2023-07-02T21:10:32;18.40;99.90
7498;DHT22;3790;48.806;9.140;2023-07-02T21:15:32;18.30;99.90
7498;DHT22;3790;48.806;9.140;2023-07-02T21:20:33;18.20;99.90
7498;DHT22;3790;48.806;9.140;2023-07-02T21:25:33;18.10;99.90
7498;DHT22;3790;48.806;9.140;2023-07-02T21:30:34;17.90;99.90
7498;DHT22;3790;48.806;9.140;2023-07-02T21:35:35;17.80;99.90
7498;DHT22;3790;48.806;9.140;2023-07-02T21:40:35;17.80;99.90
7498;DHT22;3790;48.806;9.140;2023-07-02T21:45:36;17.70;99.90
7498;DHT22;3790;48.806;9.140;2023-07-02T21:50:36;17.80;99.90
7498;DHT22;3790;48.806;9.140;2023-07-02T21:55:37;17.90;99.90
7498;DHT22;3790;48.806;9.140;2023-07-02T22:00:37;17.90;99.90
7498;DHT22;3790;48.806;9.140;2023-07-02T22:05:38;17.80;99.90
7498;DHT22;3790;48.806;9.140;2023-07-02T22:10:38;17.80;99.90
7498;DHT22;3790;48.806;9.140;2023-07-02T22:15:39;17.80;99.90
7498;DHT22;3790;48.806;9.140;2023-07-02T22:20:40;17.80;99.90
7498;DHT22;3790;48.806;9.140;2023-07-02T22:25:41;17.80;99.90
7498;DHT22;3790;48.806;9.140;2023-07-02T22:30:42;17.80;99.90
7498;DHT22;3790;48.806;9.140;2023-07-02T22:35:43;17.80;99.90
7498;DHT22;3790;48.806;9.140;2023-07-02T22:40:43;17.90;99.90
7498;DHT22;3790;48.806;9.140;2023-07-02T22:45:44;17.80;99.90
7498;DHT22;3790;48.806;9.140;2023-07-02T22:50:44;17.80;99.90
7498;DHT22;3790;48.806;9.140;2023-07-02T22:55:45;17.90;99.90
7498;DHT22;3790;48.806;9.140;2023-07-02T23:00:45;17.80;99.90
7498;DHT22;3790;48.806;9.140;2023-07-02T23:05:46;17.80;99.90
7498;DHT22;3790;48.806;9.140;2023-07-02T23:10:46;17.80;99.90
7498;DHT22;3790;48.806;9.140;2023-07-02T23:15:47;17.70;99.90
7498;DHT22;3790;48.806;9.140;2023-07-02T23:20:47;17.60;99.90
7498;DHT22;3790;48.806;9.140;2023-07-02T23:25:48;17.50;99.90
7498;DHT22;3790;48.806;9.140;2023-07-02T23:30:48;17.50;99.90
7498;DHT22;3790;48.806;9.140;2023-07-02T23:35:49;17.60;99.90
7498;DHT22;3790;48.806;9.140;2023-07-02T23:40:49;17.70;99.90
7498;DHT22;3790;48.806;9.140;2023-07-02T23:45:50;17.90;99.90
7498;DHT22;3790;48.806;9.140;2023-07-02T23:50:51;18.00;99.90
7498;DHT22;3790;48.806;9.140;2023-07-02T23:55:52;18.00;99.90
